TimeAKST,TemperatureF,Dew PointF,Humidity,Sea Level PressureIn,VisibilityMPH,Wind Direction,Wind SpeedMPH,Gust SpeedMPH,PrecipitationIn,Events,Conditions,WindDirDegrees,DateUTC
12:56 AM,-22.0,-27.9,74,29.83,-9999.0,NE,16.1,-,N/A,,Clear,50,2013-01-07 09:56:00
1:56 AM,-22.9,-29.9,70,29.82,-9999.0,NE,15.0,-,N/A,,Clear,50,2013-01-07 10:56:00
2:56 AM,-22.9,-28.8,74,29.81,4.0,NE,13.8,-,N/A,,Haze,50,2013-01-07 11:56:00
3:06 AM,-23.8,-29.2,76,29.80,3.0,NE,13.8,-,N/A,,Haze,50,2013-01-07 12:06:00
3:16 AM,-23.8,-29.2,76,29.80,3.0,ENE,12.7,-,N/A,,Haze,60,2013-01-07 12:16:00
3:45 AM,-22.0,-27.4,76,29.79,3.0,ENE,12.7,-,N/A,,Haze,60,2013-01-07 12:45:00
3:56 AM,-22.0,-27.9,74,29.81,4.0,ENE,12.7,-,N/A,,Haze,60,2013-01-07 12:56:00
4:24 AM,-22.0,-27.4,76,29.78,4.0,ENE,13.8,-,N/A,,Haze,60,2013-01-07 13:24:00
4:56 AM,-22.9,-28.8,74,29.80,3.0,NE,12.7,-,N/A,,Haze,50,2013-01-07 13:56:00
5:46 AM,-23.8,-29.2,76,29.78,2.5,NE,16.1,-,N/A,,Haze,50,2013-01-07 14:46:00
5:56 AM,-23.8,-29.2,76,29.79,2.5,ENE,15.0,-,N/A,,Haze,60,2013-01-07 14:56:00
6:20 AM,-23.8,-31.0,69,29.79,3.0,NE,13.8,-,N/A,,Haze,50,2013-01-07 15:20:00
6:56 AM,-24.0,-29.9,74,29.80,3.0,NE,16.1,-,N/A,,Haze,50,2013-01-07 15:56:00
7:21 AM,-23.8,-29.2,76,29.79,3.0,NE,13.8,-,N/A,,Haze,50,2013-01-07 16:21:00
7:33 AM,-23.8,-31.0,69,29.79,2.5,NE,13.8,-,N/A,,Haze,50,2013-01-07 16:33:00
7:56 AM,-24.0,-31.0,70,29.81,2.0,NE,15.0,-,N/A,,Haze,50,2013-01-07 16:56:00
8:07 AM,-23.8,-31.0,69,29.80,1.8,NE,15.0,-,N/A,,Haze,50,2013-01-07 17:07:00
8:56 AM,-23.8,-29.2,76,29.80,1.5,NE,16.1,-,N/A,,Haze,50,2013-01-07 17:56:00
9:17 AM,-23.8,-29.2,76,29.80,1.2,ENE,16.1,-,N/A,,Haze,60,2013-01-07 18:17:00
9:30 AM,-23.8,-29.2,76,29.80,1.5,ENE,15.0,-,N/A,,Haze,60,2013-01-07 18:30:00
9:56 AM,-22.9,-28.8,74,29.82,1.5,ENE,13.8,-,N/A,,Haze,60,2013-01-07 18:56:00
10:56 AM,-22.9,-29.9,70,29.82,2.5,ENE,13.8,-,N/A,,Haze,60,2013-01-07 19:56:00
11:41 AM,-23.8,-29.2,76,29.82,1.8,NE,15.0,-,N/A,,Haze,50,2013-01-07 20:41:00
11:56 AM,-23.8,-29.2,76,29.82,1.8,ENE,15.0,-,N/A,,Haze,60,2013-01-07 20:56:00
12:06 PM,-23.8,-29.2,76,29.82,2.0,ENE,15.0,-,N/A,,Haze,60,2013-01-07 21:06:00
12:27 PM,-25.6,-31.0,76,29.83,1.8,NE,15.0,-,N/A,,Haze,50,2013-01-07 21:27:00
12:34 PM,-25.6,-31.0,76,29.83,2.0,NE,15.0,-,N/A,,Haze,50,2013-01-07 21:34:00
12:44 PM,-23.8,-31.0,69,29.83,1.5,NE,15.0,-,N/A,,Haze,50,2013-01-07 21:44:00
12:56 PM,-24.0,-29.9,74,29.86,1.5,NE,16.1,-,N/A,,Haze,50,2013-01-07 21:56:00
1:11 PM,-23.8,-29.2,76,29.83,1.2,ENE,16.1,-,N/A,,Haze,60,2013-01-07 22:11:00
1:19 PM,-22.0,-27.4,76,29.83,1.2,ENE,16.1,-,N/A,,Haze,60,2013-01-07 22:19:00
1:31 PM,-22.0,-27.4,76,29.84,1.5,ENE,15.0,-,N/A,,Haze,60,2013-01-07 22:31:00
1:44 PM,-22.0,-27.4,76,29.84,2.0,ENE,15.0,-,N/A,,Haze,60,2013-01-07 22:44:00
1:56 PM,-22.0,-27.9,74,29.85,1.5,NE,17.3,-,N/A,,Haze,50,2013-01-07 22:56:00
2:06 PM,-20.2,-27.4,69,29.83,1.2,NE,17.3,-,N/A,,Haze,50,2013-01-07 23:06:00
2:16 PM,-20.2,-27.4,69,29.83,1.5,NE,17.3,-,N/A,,Haze,50,2013-01-07 23:16:00
2:29 PM,-20.2,-27.4,69,29.84,2.5,ENE,18.4,-,N/A,,Haze,60,2013-01-07 23:29:00
2:56 PM,-22.0,-27.4,76,29.84,2.5,ENE,15.0,-,N/A,,Haze,60,2013-01-07 23:56:00
3:07 PM,-22.0,-27.4,76,29.84,3.0,ENE,15.0,-,N/A,,Haze,60,2013-01-08 00:07:00
3:56 PM,-22.9,-28.8,74,29.86,6.0,NE,11.5,-,N/A,,Haze,50,2013-01-08 00:56:00
4:56 PM,-22.0,-27.9,74,29.86,7.0,ENE,15.0,-,N/A,,Clear,60,2013-01-08 01:56:00
5:56 PM,-22.0,-27.9,74,29.87,7.0,NE,11.5,-,N/A,,Clear,50,2013-01-08 02:56:00
6:56 PM,-22.0,-28.8,71,29.87,10.0,ENE,11.5,-,N/A,,Clear,60,2013-01-08 03:56:00
7:56 PM,-22.9,-28.8,74,29.88,10.0,NE,11.5,-,N/A,,Clear,50,2013-01-08 04:56:00
8:25 PM,-20.2,-27.4,69,29.87,10.0,ENE,12.7,-,N/A,,Mostly Cloudy,60,2013-01-08 05:25:00
8:56 PM,-18.9,-26.0,70,29.90,10.0,NE,12.7,-,N/A,,Mostly Cloudy,50,2013-01-08 05:56:00
9:48 PM,-22.0,-27.4,76,29.89,10.0,NE,12.7,-,N/A,,Scattered Clouds,40,2013-01-08 06:48:00
9:56 PM,-22.0,-27.9,74,29.91,10.0,NE,12.7,-,N/A,,Scattered Clouds,40,2013-01-08 06:56:00
10:56 PM,-20.9,-26.9,74,29.91,10.0,NE,12.7,-,N/A,,Partly Cloudy,50,2013-01-08 07:56:00
11:56 PM,-19.8,-26.9,70,29.92,10.0,NE,13.8,-,N/A,,Clear,50,2013-01-08 08:56:00